Time;durP1;ratioP1;P1;durP2;ratioP2;P2;SDS_P1;SDS_P2;PMS_P1;PMS_P2;Temp;Humidity;BMP_temperature;BMP_pressure;BME280_temperature;BME280_humidity;BME280_pressure;Samples;Min_cycle;Max_cycle;Signal;HPM_P1;HPM_P2
2024/03/08 00:01:48;;;;;;;18.67;5.40;;;4.80;1.00;;;;;;4998748;28;20269;-83
2024/03/08 00:04:15;;;;;;;24.40;6.27;;;4.70;1.00;;;;;;4999540;28;20413;-83
2024/03/08 00:06:45;;;;;;;18.80;5.78;;;4.70;1.00;;;;;;4998614;28;20183;-83
2024/03/08 00:09:12;;;;;;;20.27;5.55;;;4.80;1.00;;;;;;4999432;28;20231;-83
2024/03/08 00:11:37;;;;;;;19.50;5.10;;;4.70;1.00;;;;;;4998744;28;20202;-83
2024/03/08 00:14:06;;;;;;;20.60;6.40;;;4.60;1.00;;;;;;4998820;28;20167;-83
2024/03/08 00:16:33;;;;;;;18.38;4.70;;;4.60;1.00;;;;;;4999126;28;20173;-83
2024/03/08 00:18:58;;;;;;;18.42;5.93;;;4.50;1.00;;;;;;4997822;28;20175;-83
2024/03/08 00:21:24;;;;;;;17.97;5.70;;;4.60;1.00;;;;;;4998731;28;20238;-83
2024/03/08 00:23:49;;;;;;;18.80;6.60;;;4.60;1.00;;;;;;4998248;28;20171;-83
2024/03/08 00:26:15;;;;;;;18.50;5.37;;;4.60;1.00;;;;;;4998537;28;20714;-83
2024/03/08 00:28:41;;;;;;;16.20;5.50;;;4.60;1.00;;;;;;4998333;28;20168;-83
2024/03/08 00:31:07;;;;;;;21.03;5.67;;;4.60;1.00;;;;;;4981005;28;20191;-83
2024/03/08 00:33:32;;;;;;;17.60;6.00;;;4.50;1.00;;;;;;4998334;28;20178;-83
2024/03/08 00:35:58;;;;;;;19.53;6.47;;;4.40;1.00;;;;;;4998416;28;20187;-83
2024/03/08 00:38:24;;;;;;;20.90;6.60;;;4.50;1.00;;;;;;4996354;28;20173;-83
2024/03/08 00:40:49;;;;;;;20.47;7.37;;;4.40;1.00;;;;;;4997946;28;20198;-83
2024/03/08 00:43:17;;;;;;;18.43;5.30;;;4.50;1.00;;;;;;4998265;28;20178;-83
2024/03/08 00:45:43;;;;;;;17.40;4.72;;;4.50;1.00;;;;;;4998471;28;20254;-83
2024/03/08 00:48:10;;;;;;;21.60;5.83;;;4.50;1.00;;;;;;4998192;28;20289;-83
2024/03/08 00:50:36;;;;;;;21.48;6.15;;;4.50;1.00;;;;;;4997038;28;20195;-83
2024/03/08 00:53:02;;;;;;;20.80;6.17;;;4.40;1.00;;;;;;4998205;28;20160;-83
2024/03/08 00:55:29;;;;;;;17.97;4.93;;;4.30;1.00;;;;;;4996757;28;20410;-83
2024/03/08 00:57:55;;;;;;;17.92;5.75;;;4.20;1.00;;;;;;4997379;28;20406;-83
2024/03/08 01:00:21;;;;;;;19.27;5.40;;;4.20;1.00;;;;;;4997329;28;20783;-83
2024/03/08 01:02:47;;;;;;;21.65;5.80;;;4.20;1.00;;;;;;4997347;28;20170;-83
2024/03/08 01:05:13;;;;;;;21.27;5.78;;;4.30;1.00;;;;;;4995405;28;20238;-82
2024/03/08 01:07:39;;;;;;;17.97;5.43;;;4.40;1.00;;;;;;4996752;28;20191;-83
2024/03/08 01:10:11;;;;;;;17.83;5.97;;;4.40;1.00;;;;;;4995334;28;20931;-83
2024/03/08 01:12:37;;;;;;;18.77;6.10;;;4.30;1.00;;;;;;4997260;28;20383;-83
2024/03/08 01:15:03;;;;;;;20.20;5.93;;;4.30;1.00;;;;;;4979315;28;20175;-82
2024/03/08 01:17:28;;;;;;;24.35;6.25;;;4.20;1.00;;;;;;4997029;28;20479;-83
2024/03/08 01:19:54;;;;;;;20.30;5.30;;;4.20;1.00;;;;;;4996760;28;20196;-82
2024/03/08 01:22:20;;;;;;;23.73;6.53;;;4.10;1.00;;;;;;4996353;28;20651;-82
2024/03/08 01:24:45;;;;;;;20.67;6.23;;;4.10;1.00;;;;;;4978701;28;20183;-82
2024/03/08 01:27:12;;;;;;;21.40;7.07;;;4.20;1.00;;;;;;4996677;28;20477;-82
2024/03/08 01:29:38;;;;;;;19.27;5.88;;;4.20;1.00;;;;;;4995736;28;20238;-82
2024/03/08 01:32:04;;;;;;;21.80;6.50;;;4.20;1.00;;;;;;4996804;28;20223;-82
2024/03/08 01:34:29;;;;;;;16.65;4.78;;;4.20;1.00;;;;;;4996981;28;20164;-82
2024/03/08 01:36:56;;;;;;;22.33;5.97;;;4.20;1.00;;;;;;4996521;28;20221;-82
2024/03/08 01:39:22;;;;;;;21.95;6.28;;;4.10;1.00;;;;;;4996451;28;20508;-81
2024/03/08 01:41:48;;;;;;;20.47;6.07;;;3.90;1.00;;;;;;4996559;28;20266;-82
2024/03/08 01:44:17;;;;;;;17.93;5.60;;;3.90;1.00;;;;;;4996733;28;20236;-82
2024/03/08 01:46:44;;;;;;;16.42;4.35;;;3.90;1.00;;;;;;4996781;28;20450;-82
2024/03/08 01:49:11;;;;;;;20.33;6.22;;;3.80;1.00;;;;;;4997102;28;20156;-83
2024/03/08 01:51:38;;;;;;;19.00;5.10;;;3.80;1.00;;;;;;4996356;28;20195;-83
2024/03/08 01:54:04;;;;;;;19.88;6.60;;;3.80;1.00;;;;;;4996600;28;20164;-83
2024/03/08 01:56:31;;;;;;;21.30;5.97;;;3.80;1.00;;;;;;4996756;28;20163;-83
2024/03/08 01:58:59;;;;;;;18.95;6.32;;;3.80;1.00;;;;;;4995243;28;20177;-82
2024/03/08 02:01:25;;;;;;;21.08;5.32;;;3.80;1.00;;;;;;4996850;28;20265;-83
2024/03/08 02:03:50;;;;;;;19.13;7.63;;;3.80;1.00;;;;;;4978791;28;20206;-82
2024/03/08 02:06:16;;;;;;;19.23;5.97;;;3.70;1.00;;;;;;4995938;28;20403;-83
2024/03/08 02:08:46;;;;;;;23.27;6.97;;;3.70;1.00;;;;;;4996266;28;20478;-82
2024/03/08 02:11:12;;;;;;;21.05;5.90;;;3.70;1.00;;;;;;4999367;28;20422;-83
2024/03/08 02:13:38;;;;;;;20.48;5.97;;;3.70;1.00;;;;;;4983788;28;20167;-83
2024/03/08 02:16:04;;;;;;;21.60;7.63;;;3.70;1.00;;;;;;5001127;28;20174;-83
2024/03/08 02:18:32;;;;;;;18.55;6.05;;;3.70;1.00;;;;;;5000855;28;20209;-83
2024/03/08 02:21:02;;;;;;;27.35;7.60;;;3.70;1.00;;;;;;5001060;28;20266;-83
2024/03/08 02:23:28;;;;;;;22.17;7.80;;;3.70;1.00;;;;;;5000593;28;20202;-83
2024/03/08 02:25:57;;;;;;;17.20;5.00;;;3.70;1.00;;;;;;5000637;28;20163;-83
2024/03/08 02:28:25;;;;;;;19.80;6.32;;;3.70;1.00;;;;;;5000646;28;20198;-83
2024/03/08 02:30:51;;;;;;;17.52;5.38;;;3.60;1.00;;;;;;4999211;28;20221;-83
2024/03/08 02:33:17;;;;;;;18.23;5.90;;;3.50;1.00;;;;;;5000696;28;20167;-83
2024/03/08 02:35:46;;;;;;;20.25;5.50;;;3.60;1.00;;;;;;5000424;28;20402;-83
2024/03/08 02:38:16;;;;;;;19.60;5.68;;;3.50;1.00;;;;;;5000656;28;20163;-83
2024/03/08 02:40:43;;;;;;;20.83;5.70;;;3.50;1.00;;;;;;4983995;28;20191;-83
2024/03/08 02:43:09;;;;;;;20.60;6.22;;;3.50;1.00;;;;;;5000682;28;20186;-83
2024/03/08 02:45:34;;;;;;;20.30;5.60;;;3.60;1.00;;;;;;5000459;28;20249;-83
2024/03/08 02:48:00;;;;;;;19.93;5.67;;;3.50;1.00;;;;;;4982768;28;20250;-83
2024/03/08 02:50:26;;;;;;;20.03;4.90;;;3.60;1.00;;;;;;5000374;28;20479;-82
2024/03/08 02:52:52;;;;;;;22.00;7.20;;;3.60;1.00;;;;;;5000953;28;20830;-83
2024/03/08 02:55:17;;;;;;;23.47;6.63;;;3.60;1.00;;;;;;4998888;28;20170;-83
2024/03/08 02:57:43;;;;;;;24.63;8.57;;;3.60;1.00;;;;;;5000457;28;20167;-83
2024/03/08 03:00:13;;;;;;;24.37;6.77;;;3.60;1.00;;;;;;4982693;28;20576;-83
2024/03/08 03:02:39;;;;;;;17.95;5.70;;;3.50;1.00;;;;;;5000137;28;20405;-83
2024/03/08 03:05:06;;;;;;;20.03;6.43;;;3.60;1.00;;;;;;5000068;28;20574;-83
2024/03/08 03:07:38;;;;;;;22.83;5.28;;;3.40;1.00;;;;;;5000039;28;20191;-83
2024/03/08 03:10:04;;;;;;;18.90;6.55;;;3.40;1.00;;;;;;4998942;28;20533;-83
2024/03/08 03:12:31;;;;;;;24.33;5.40;;;3.40;1.00;;;;;;5000070;28;20636;-83
2024/03/08 03:14:57;;;;;;;18.67;5.55;;;3.40;1.00;;;;;;5000457;28;20198;-83
2024/03/08 03:17:24;;;;;;;20.85;6.40;;;3.40;1.00;;;;;;5000154;28;20163;-83
2024/03/08 03:19:51;;;;;;;17.52;5.03;;;3.30;1.00;;;;;;5000228;28;20636;-82
2024/03/08 03:22:18;;;;;;;19.63;5.55;;;3.40;1.00;;;;;;4996725;28;20182;-82
2024/03/08 03:24:44;;;;;;;22.00;6.50;;;3.50;1.00;;;;;;4999560;28;20270;-82
2024/03/08 03:27:12;;;;;;;22.63;6.63;;;3.40;1.00;;;;;;4980314;28;20214;-82
2024/03/08 03:29:47;;;;;;;16.20;5.05;;;3.40;1.00;;;;;;4999324;28;20233;-83
2024/03/08 03:32:13;;;;;;;18.23;5.63;;;3.40;1.00;;;;;;4998771;28;20187;-82
2024/03/08 03:34:39;;;;;;;19.85;5.72;;;3.30;1.00;;;;;;4998778;28;20595;-82
2024/03/08 03:37:08;;;;;;;19.50;6.20;;;3.30;1.00;;;;;;4981172;28;20218;-83
2024/03/08 03:39:48;;;;;;;21.77;5.72;;;3.30;1.00;;;;;;4981293;28;20168;-81
2024/03/08 03:42:16;;;;;;;20.40;5.30;;;3.20;1.00;;;;;;4998388;28;20183;-82
2024/03/08 03:44:47;;;;;;;16.83;5.40;;;3.20;1.00;;;;;;4998652;28;20174;-82
2024/03/08 03:47:13;;;;;;;20.77;7.60;;;3.20;1.00;;;;;;4998934;28;20576;-83
2024/03/08 03:49:39;;;;;;;17.42;5.20;;;3.20;1.00;;;;;;4998399;28;20159;-82
2024/03/08 03:52:05;;;;;;;18.77;6.07;;;3.20;1.00;;;;;;4998690;28;20277;-82
2024/03/08 03:54:31;;;;;;;20.08;5.63;;;3.20;1.00;;;;;;4998310;28;20407;-82
2024/03/08 03:56:57;;;;;;;20.33;6.73;;;3.10;1.00;;;;;;4998702;28;20167;-82
2024/03/08 03:59:24;;;;;;;17.93;5.10;;;3.10;1.00;;;;;;4998124;28;20413;-82
2024/03/08 04:01:50;;;;;;;21.08;6.28;;;3.20;1.00;;;;;;4998271;28;20556;-82
2024/03/08 04:04:16;;;;;;;23.87;5.97;;;3.10;1.00;;;;;;4980940;28;20179;-83
2024/03/08 04:06:41;;;;;;;19.73;6.83;;;3.10;1.00;;;;;;4998364;28;20218;-82
2024/03/08 04:09:07;;;;;;;22.73;6.77;;;3.10;1.00;;;;;;4998142;28;20402;-82
2024/03/08 04:11:33;;;;;;;20.17;6.80;;;3.10;1.00;;;;;;4998260;28;20194;-82
2024/03/08 04:13:59;;;;;;;19.17;5.80;;;3.10;1.00;;;;;;4998184;28;20533;-83
2024/03/08 04:16:25;;;;;;;23.23;7.10;;;3.10;1.00;;;;;;4980385;28;20413;-83
2024/03/08 04:18:52;;;;;;;18.45;5.63;;;3.10;1.00;;;;;;4997866;28;20167;-82
2024/03/08 04:21:19;;;;;;;20.95;6.28;;;3.10;1.00;;;;;;4997712;28;20199;-83
2024/03/08 04:23:45;;;;;;;23.15;7.18;;;3.10;1.00;;;;;;4980117;28;20250;-82
2024/03/08 04:26:11;;;;;;;19.90;6.50;;;3.00;1.00;;;;;;4997803;28;20172;-82
2024/03/08 04:28:37;;;;;;;17.00;4.47;;;3.00;1.00;;;;;;4997984;28;20168;-82
2024/03/08 04:31:03;;;;;;;21.43;5.80;;;3.00;1.00;;;;;;4997935;28;20185;-82
2024/03/08 04:33:29;;;;;;;23.67;7.10;;;3.00;1.00;;;;;;4980077;28;20445;-83
2024/03/08 04:35:55;;;;;;;19.73;5.90;;;3.10;1.00;;;;;;4981199;28;20529;-83
2024/03/08 04:38:22;;;;;;;22.00;7.00;;;3.00;1.00;;;;;;4998693;28;20175;-83
2024/03/08 04:40:48;;;;;;;20.45;6.00;;;3.00;1.00;;;;;;4997241;28;20740;-83
2024/03/08 04:43:14;;;;;;;21.90;6.25;;;3.00;1.00;;;;;;4998102;28;20178;-83
2024/03/08 04:45:43;;;;;;;18.80;5.20;;;2.90;1.00;;;;;;4998160;28;20615;-83
2024/03/08 04:48:09;;;;;;;18.95;5.78;;;2.90;1.00;;;;;;4998404;28;20947;-82
2024/03/08 04:50:35;;;;;;;17.10;5.80;;;2.90;1.00;;;;;;4998018;28;20187;-82
2024/03/08 04:53:01;;;;;;;18.17;4.93;;;2.90;1.00;;;;;;4998248;28;20411;-83
2024/03/08 04:55:26;;;;;;;23.10;7.40;;;2.90;1.00;;;;;;4998489;28;20178;-83
2024/03/08 04:57:52;;;;;;;20.80;7.03;;;2.90;1.00;;;;;;4997932;28;20183;-83
2024/03/08 05:00:19;;;;;;;21.60;5.75;;;2.80;1.00;;;;;;4998217;28;20676;-83
2024/03/08 05:02:45;;;;;;;17.27;5.43;;;2.80;1.00;;;;;;4997040;28;20179;-83
2024/03/08 05:05:13;;;;;;;20.40;6.67;;;2.80;1.00;;;;;;4997454;28;20699;-83
2024/03/08 05:07:39;;;;;;;21.90;5.70;;;2.80;1.00;;;;;;4997113;28;20278;-83
2024/03/08 05:10:06;;;;;;;19.58;5.88;;;2.90;1.00;;;;;;4996957;28;20171;-82
2024/03/08 05:12:36;;;;;;;22.23;7.75;;;2.90;1.00;;;;;;4998201;28;20246;-83
2024/03/08 05:15:02;;;;;;;17.50;5.18;;;2.90;1.00;;;;;;4998345;28;20166;-83
2024/03/08 05:17:29;;;;;;;17.55;4.70;;;2.90;1.00;;;;;;4997882;28;20596;-83
2024/03/08 05:19:55;;;;;;;21.02;4.93;;;2.90;1.00;;;;;;4997334;28;20575;-82
2024/03/08 05:22:20;;;;;;;18.67;5.00;;;2.90;1.00;;;;;;4997861;28;20221;-83
2024/03/08 05:24:46;;;;;;;18.83;5.23;;;2.90;1.00;;;;;;4997466;28;20168;-83
2024/03/08 05:27:12;;;;;;;20.03;5.17;;;2.80;1.00;;;;;;4997848;28;20190;-83
2024/03/08 05:29:38;;;;;;;19.10;6.35;;;2.80;1.00;;;;;;4979972;28;20177;-83
2024/03/08 05:32:04;;;;;;;19.70;6.40;;;2.70;1.00;;;;;;4997433;28;20178;-83
2024/03/08 05:34:32;;;;;;;22.30;6.50;;;2.60;3.30;;;;;;4997331;28;20163;-83
2024/03/08 05:36:59;;;;;;;25.63;6.43;;;2.60;4.10;;;;;;4996665;28;20433;-82
2024/03/08 05:39:25;;;;;;;18.65;5.60;;;2.60;4.20;;;;;;4996991;28;20167;-83
2024/03/08 05:41:51;;;;;;;21.20;6.37;;;2.60;6.80;;;;;;4979924;28;20246;-83
2024/03/08 05:44:17;;;;;;;22.37;6.27;;;2.60;6.60;;;;;;4997348;28;20176;-82
2024/03/08 05:46:42;;;;;;;25.40;7.20;;;2.60;4.40;;;;;;4996818;28;20234;-83
2024/03/08 05:49:09;;;;;;;21.80;7.00;;;2.60;3.60;;;;;;4979741;28;20403;-82
2024/03/08 05:51:37;;;;;;;18.27;6.40;;;2.70;5.90;;;;;;4996734;28;20253;-82
2024/03/08 05:54:05;;;;;;;18.92;5.93;;;2.70;8.00;;;;;;4997246;28;20166;-82
2024/03/08 05:56:34;;;;;;;21.20;5.82;;;2.60;8.00;;;;;;4996759;28;20171;-82
2024/03/08 05:59:00;;;;;;;19.35;5.68;;;2.60;10.80;;;;;;4979453;28;20167;-82
2024/03/08 06:01:26;;;;;;;21.90;6.30;;;2.50;11.40;;;;;;4997070;28;20202;-82
2024/03/08 06:03:56;;;;;;;18.00;5.10;;;2.50;15.10;;;;;;4979221;28;20410;-82
2024/03/08 06:06:23;;;;;;;20.90;5.25;;;2.50;13.70;;;;;;4979308;28;20190;-82
2024/03/08 06:08:50;;;;;;;23.58;6.50;;;2.40;13.50;;;;;;4979316;28;20572;-82
2024/03/08 06:11:17;;;;;;;19.13;5.38;;;2.30;18.00;;;;;;4996770;28;20183;-82
2024/03/08 06:13:46;;;;;;;21.85;6.85;;;2.40;17.10;;;;;;4996520;28;20155;-82
2024/03/08 06:16:12;;;;;;;22.85;4.90;;;2.30;17.00;;;;;;4996101;28;20194;-82
2024/03/08 06:18:39;;;;;;;20.43;7.00;;;2.30;17.60;;;;;;4995400;28;20171;-82
2024/03/08 06:21:05;;;;;;;19.55;5.00;;;2.40;19.70;;;;;;4996501;28;20418;-82
2024/03/08 06:23:38;;;;;;;22.10;5.05;;;2.50;14.80;;;;;;4996682;28;20171;-82
2024/03/08 06:26:07;;;;;;;21.48;6.38;;;2.40;14.50;;;;;;4996140;28;20162;-82
2024/03/08 06:28:34;;;;;;;21.63;6.57;;;2.40;14.80;;;;;;4996733;28;20187;-82
2024/03/08 06:31:00;;;;;;;24.50;6.60;;;2.50;18.20;;;;;;4995419;28;20233;-81
2024/03/08 06:33:29;;;;;;;19.20;5.97;;;2.50;13.00;;;;;;4995273;28;20637;-81
2024/03/08 06:35:58;;;;;;;23.25;6.88;;;2.60;12.90;;;;;;4996147;28;20410;-81
2024/03/08 06:38:24;;;;;;;18.73;4.30;;;2.70;12.50;;;;;;4996347;28;20174;-81
2024/03/08 06:40:51;;;;;;;21.77;6.25;;;2.70;8.90;;;;;;4996741;28;20190;-81
2024/03/08 06:43:18;;;;;;;22.05;5.97;;;2.70;12.40;;;;;;4978196;28;20179;-82
2024/03/08 06:45:48;;;;;;;19.42;5.82;;;2.60;9.60;;;;;;4996107;28;20148;-81
2024/03/08 06:48:19;;;;;;;19.20;6.45;;;2.60;12.00;;;;;;4996253;28;20183;-82
2024/03/08 06:50:46;;;;;;;23.20;5.68;;;2.60;11.40;;;;;;4979086;28;20609;-81
2024/03/08 06:53:13;;;;;;;21.77;4.68;;;2.60;11.70;;;;;;4996354;28;20684;-81
2024/03/08 06:55:39;;;;;;;22.55;6.00;;;2.60;9.10;;;;;;4996537;28;20160;-82
2024/03/08 06:58:06;;;;;;;20.58;6.97;;;2.60;11.90;;;;;;5002626;28;20155;-82
2024/03/08 07:00:32;;;;;;;23.00;6.95;;;2.70;12.80;;;;;;5001123;28;20190;-82
2024/03/08 07:03:00;;;;;;;19.33;5.80;;;2.80;7.30;;;;;;5000426;28;20263;-82
2024/03/08 07:05:27;;;;;;;20.02;7.40;;;2.80;9.00;;;;;;4982830;28;20425;-82
2024/03/08 07:07:54;;;;;;;19.98;6.45;;;2.90;2.00;;;;;;5000633;28;20223;-82
2024/03/08 07:10:21;;;;;;;23.48;6.38;;;2.90;4.40;;;;;;4982430;28;20195;-82
2024/03/08 07:12:46;;;;;;;26.10;9.38;;;2.90;1.00;;;;;;4999937;28;20175;-82
2024/03/08 07:15:15;;;;;;;21.97;7.50;;;3.00;1.50;;;;;;4999777;28;20163;-82
2024/03/08 07:17:44;;;;;;;21.25;6.10;;;3.00;1.00;;;;;;5000395;28;20166;-83
2024/03/08 07:20:12;;;;;;;22.85;5.38;;;3.00;1.00;;;;;;4981842;28;20548;-82
2024/03/08 07:22:38;;;;;;;20.85;6.30;;;3.10;1.00;;;;;;4999918;28;20163;-81
2024/03/08 07:25:21;;;;;;;23.55;7.47;;;3.10;1.00;;;;;;4999630;28;20166;-82
2024/03/08 07:27:47;;;;;;;18.40;5.60;;;3.20;1.00;;;;;;4999863;28;20206;-82
2024/03/08 07:30:46;;;;;;;18.45;6.20;;;3.20;1.00;;;;;;4999819;28;20207;-82
2024/03/08 07:32:58;;;;;;;21.55;5.72;;;3.30;1.00;;;;;;4999455;28;20183;-82
2024/03/08 07:35:27;;;;;;;18.03;5.37;;;3.40;1.00;;;;;;4999925;28;20163;-82
2024/03/08 07:37:54;;;;;;;23.23;7.15;;;3.40;1.00;;;;;;4998661;28;20175;-82
2024/03/08 07:40:21;;;;;;;21.40;6.88;;;3.50;1.00;;;;;;4999260;28;20183;-82
2024/03/08 07:42:46;;;;;;;20.50;6.50;;;3.50;1.00;;;;;;4999461;28;20175;-82
2024/03/08 07:45:12;;;;;;;30.30;8.73;;;3.60;1.00;;;;;;4999447;28;20232;-82
2024/03/08 07:47:41;;;;;;;20.53;5.50;;;3.70;1.00;;;;;;4999419;28;20210;-82
2024/03/08 07:50:10;;;;;;;18.98;6.00;;;3.70;1.00;;;;;;4998917;28;20413;-82
2024/03/08 07:52:36;;;;;;;18.92;5.13;;;3.70;1.00;;;;;;4981869;28;20183;-82
2024/03/08 07:55:05;;;;;;;22.07;6.20;;;3.80;1.00;;;;;;4982068;28;20178;-82
2024/03/08 07:57:31;;;;;;;21.83;5.85;;;3.90;1.00;;;;;;4998909;28;20671;-82
2024/03/08 07:59:57;;;;;;;24.63;7.07;;;3.90;1.00;;;;;;4998796;28;20258;-82
2024/03/08 08:02:23;;;;;;;22.98;6.82;;;4.00;1.00;;;;;;4999060;28;20171;-82
2024/03/08 08:04:49;;;;;;;24.27;7.53;;;4.00;1.00;;;;;;4999269;28;20521;-82
2024/03/08 08:07:14;;;;;;;22.63;7.33;;;4.10;1.00;;;;;;4998685;28;20254;-82
2024/03/08 08:09:42;;;;;;;22.93;6.87;;;4.10;1.00;;;;;;4998188;28;20167;-81
2024/03/08 08:12:11;;;;;;;25.27;5.60;;;4.20;1.00;;;;;;4997958;28;20183;-82
2024/03/08 08:14:37;;;;;;;21.88;7.97;;;4.20;1.00;;;;;;4980169;28;20222;-82
2024/03/08 08:17:04;;;;;;;28.25;8.50;;;4.20;1.00;;;;;;4998112;28;20514;-82
2024/03/08 08:19:30;;;;;;;23.90;7.18;;;4.30;1.00;;;;;;4997973;28;20242;-82
2024/03/08 08:21:55;;;;;;;21.85;6.95;;;4.30;1.00;;;;;;4980259;28;20629;-82
2024/03/08 08:24:21;;;;;;;18.67;5.53;;;4.30;1.00;;;;;;4997398;28;20163;-82
2024/03/08 08:26:47;;;;;;;24.80;6.68;;;4.40;1.00;;;;;;4997234;28;20610;-82
2024/03/08 08:29:13;;;;;;;25.63;5.70;;;4.40;1.00;;;;;;4998035;28;20167;-82
2024/03/08 08:31:39;;;;;;;19.77;6.45;;;4.60;1.00;;;;;;4997416;28;20190;-82
2024/03/08 08:34:06;;;;;;;26.90;6.40;;;4.60;1.00;;;;;;4997563;28;20528;-82
2024/03/08 08:36:32;;;;;;;18.52;5.25;;;4.70;1.00;;;;;;4997264;28;20506;-82
2024/03/08 08:38:59;;;;;;;25.87;7.00;;;4.70;1.00;;;;;;4979716;28;20170;-82
2024/03/08 08:41:25;;;;;;;22.08;5.97;;;4.70;1.00;;;;;;4997271;28;20843;-81
2024/03/08 08:43:51;;;;;;;22.30;6.38;;;4.80;1.00;;;;;;4997156;28;20540;-81
2024/03/08 08:46:21;;;;;;;21.70;7.50;;;4.80;1.00;;;;;;4997490;28;20188;-82
2024/03/08 08:48:47;;;;;;;19.77;6.03;;;4.90;1.00;;;;;;4997736;28;20167;-82
2024/03/08 08:51:12;;;;;;;21.00;6.10;;;5.00;1.00;;;;;;4996621;28;20733;-82
2024/03/08 08:53:46;;;;;;;21.17;6.70;;;5.10;1.00;;;;;;4996631;28;20167;-81
2024/03/08 08:56:13;;;;;;;19.00;5.43;;;5.20;1.00;;;;;;4996819;28;20609;-82
2024/03/08 08:58:42;;;;;;;18.33;5.15;;;5.30;1.00;;;;;;4995763;28;20266;-82
2024/03/08 09:01:11;;;;;;;18.48;4.97;;;5.50;1.00;;;;;;4997114;28;20555;-82
2024/03/08 09:03:40;;;;;;;20.25;5.82;;;5.50;1.00;;;;;;4997240;28;20179;-81
2024/03/08 09:06:12;;;;;;;21.95;6.65;;;5.60;1.00;;;;;;4997197;28;20171;-81
2024/03/08 09:08:38;;;;;;;17.80;4.53;;;5.60;1.00;;;;;;4997106;28;20187;-81
2024/03/08 09:11:05;;;;;;;20.45;5.80;;;5.70;1.00;;;;;;4997543;28;20230;-82
2024/03/08 09:13:31;;;;;;;20.30;5.82;;;5.70;1.00;;;;;;4996965;28;20246;-82
2024/03/08 09:15:56;;;;;;;22.50;5.55;;;5.80;1.00;;;;;;4995310;28;20175;-81
2024/03/08 09:18:23;;;;;;;22.87;8.53;;;5.90;1.00;;;;;;4996775;28;20194;-82
2024/03/08 09:20:49;;;;;;;19.98;7.07;;;6.00;1.00;;;;;;4996811;28;20179;-82
2024/03/08 09:23:16;;;;;;;19.77;5.60;;;6.00;1.00;;;;;;4978853;28;20222;-82
2024/03/08 09:25:43;;;;;;;20.85;6.32;;;6.20;1.00;;;;;;4979112;28;20414;-82
2024/03/08 09:28:11;;;;;;;16.88;5.82;;;6.30;1.00;;;;;;4996942;28;20226;-83
2024/03/08 09:30:38;;;;;;;19.45;5.07;;;6.40;1.00;;;;;;4997608;28;20210;-82
2024/03/08 09:33:04;;;;;;;21.30;5.25;;;6.40;1.00;;;;;;4996441;28;20179;-83
2024/03/08 09:35:30;;;;;;;21.02;5.30;;;6.50;1.00;;;;;;4997516;28;20624;-83
2024/03/08 09:37:55;;;;;;;20.57;6.77;;;6.60;1.00;;;;;;4997796;28;20175;-83
2024/03/08 09:40:24;;;;;;;22.43;7.20;;;6.60;1.00;;;;;;4979566;28;20209;-83
2024/03/08 09:42:50;;;;;;;16.10;4.43;;;6.70;1.00;;;;;;4997557;28;20254;-83
2024/03/08 09:45:17;;;;;;;19.02;4.13;;;6.70;1.00;;;;;;4996912;28;20167;-82
2024/03/08 09:47:44;;;;;;;19.00;6.00;;;6.80;1.00;;;;;;4979901;28;20202;-83
2024/03/08 09:50:12;;;;;;;19.13;4.25;;;6.90;1.00;;;;;;4996892;28;20167;-82
2024/03/08 09:52:43;;;;;;;22.17;6.97;;;7.00;1.00;;;;;;4997573;28;20181;-83
2024/03/08 09:55:13;;;;;;;16.90;3.90;;;7.10;1.00;;;;;;4979662;28;20171;-83
2024/03/08 09:57:40;;;;;;;22.30;6.43;;;7.20;1.00;;;;;;4997341;28;20201;-82
2024/03/08 10:00:23;;;;;;;19.35;6.53;;;7.30;1.00;;;;;;4996647;28;20171;-82
2024/03/08 10:02:52;;;;;;;18.73;5.85;;;7.40;1.00;;;;;;4997390;28;20697;-83
2024/03/08 10:05:19;;;;;;;18.88;4.18;;;7.60;1.00;;;;;;4997234;28;20198;-83
2024/03/08 10:07:45;;;;;;;16.42;4.55;;;7.80;1.00;;;;;;4979259;28;20198;-83
2024/03/08 10:10:12;;;;;;;17.20;4.20;;;7.90;1.00;;;;;;4997449;28;20179;-83
2024/03/08 10:12:39;;;;;;;20.60;5.25;;;8.00;1.00;;;;;;4995851;28;20250;-82
2024/03/08 10:15:07;;;;;;;19.60;4.30;;;8.20;1.00;;;;;;4997238;28;20250;-83
2024/03/08 10:17:35;;;;;;;16.95;3.83;;;8.30;1.00;;;;;;4979315;28;20170;-83
2024/03/08 10:20:00;;;;;;;18.33;4.78;;;8.40;1.00;;;;;;4996856;28;20177;-83
2024/03/08 10:22:26;;;;;;;17.30;4.27;;;8.50;1.00;;;;;;4979769;28;20269;-83
2024/03/08 10:24:52;;;;;;;17.47;4.10;;;8.50;1.00;;;;;;4997088;28;20900;-83
2024/03/08 10:27:18;;;;;;;16.30;5.67;;;8.60;1.00;;;;;;4979641;28;20828;-83
2024/03/08 10:29:53;;;;;;;16.48;4.93;;;8.70;1.00;;;;;;4997158;28;20167;-83
2024/03/08 10:32:18;;;;;;;15.93;3.90;;;8.90;1.00;;;;;;4982314;28;20166;-83
2024/03/08 10:34:45;;;;;;;18.83;5.10;;;8.90;1.00;;;;;;5000793;28;20163;-82
2024/03/08 10:37:17;;;;;;;16.38;4.28;;;8.90;1.00;;;;;;5000643;28;20406;-83
2024/03/08 10:39:52;;;;;;;19.75;4.32;;;9.00;1.00;;;;;;5000883;28;20144;-83
2024/03/08 10:42:26;;;;;;;16.73;3.90;;;9.10;1.00;;;;;;5000319;28;20151;-83
2024/03/08 10:45:06;;;;;;;17.52;4.85;;;9.20;1.00;;;;;;5000513;28;20165;-83
2024/03/08 10:47:40;;;;;;;16.65;3.90;;;9.30;1.00;;;;;;5000324;28;20198;-81
2024/03/08 10:50:20;;;;;;;22.95;5.07;;;9.30;1.00;;;;;;5000626;28;20159;-84
2024/03/08 10:52:51;;;;;;;16.75;4.80;;;9.20;1.00;;;;;;4999552;28;20149;-83
2024/03/08 10:55:18;;;;;;;16.17;4.22;;;9.30;1.00;;;;;;4998416;28;20164;-82
2024/03/08 10:57:43;;;;;;;17.73;4.68;;;9.60;1.00;;;;;;4999505;28;20171;-82
2024/03/08 11:00:12;;;;;;;19.03;4.00;;;9.60;1.00;;;;;;4999067;28;20167;-83
2024/03/08 11:02:38;;;;;;;15.52;3.90;;;9.70;1.00;;;;;;4999146;28;20163;-83
2024/03/08 11:05:05;;;;;;;15.60;3.07;;;9.60;1.00;;;;;;4999168;28;20174;-83
2024/03/08 11:07:35;;;;;;;15.85;3.00;;;9.80;1.00;;;;;;4998811;28;20473;-82
2024/03/08 11:10:10;;;;;;;16.60;3.42;;;9.80;1.00;;;;;;4998755;28;20195;-83
2024/03/08 11:12:37;;;;;;;14.52;3.50;;;9.80;1.00;;;;;;4999025;28;20139;-83
2024/03/08 11:15:19;;;;;;;16.67;4.00;;;9.70;1.00;;;;;;4998632;28;20223;-82
2024/03/08 11:17:49;;;;;;;18.92;4.75;;;9.80;1.00;;;;;;4999414;28;20235;-82
2024/03/08 11:20:17;;;;;;;17.65;4.60;;;9.80;1.00;;;;;;4981864;28;20191;-83
2024/03/08 11:23:01;;;;;;;15.85;3.05;;;9.80;1.00;;;;;;4982052;28;20197;-82
2024/03/08 11:25:37;;;;;;;16.17;4.65;;;9.80;1.00;;;;;;4999477;28;20151;-82
2024/03/08 11:28:17;;;;;;;17.95;4.05;;;9.90;1.00;;;;;;4998533;28;20191;-83
2024/03/08 11:31:07;;;;;;;14.48;3.60;;;9.90;1.00;;;;;;4999105;28;20183;-83
2024/03/08 11:33:36;;;;;;;17.25;4.47;;;10.10;1.00;;;;;;4981215;28;20668;-83
2024/03/08 11:36:11;;;;;;;17.25;3.65;;;10.10;1.00;;;;;;4998330;28;20738;-82
2024/03/08 11:38:49;;;;;;;14.32;3.55;;;10.00;1.00;;;;;;4981187;28;20543;-83
2024/03/08 11:41:23;;;;;;;21.25;5.38;;;10.00;1.00;;;;;;4981121;28;20241;-82
2024/03/08 11:43:50;;;;;;;15.90;3.95;;;10.00;1.00;;;;;;4997043;28;20167;-83
2024/03/08 11:46:17;;;;;;;15.38;3.45;;;10.30;1.00;;;;;;4998746;28;20194;-83
2024/03/08 11:48:44;;;;;;;16.33;3.83;;;10.40;1.00;;;;;;4981069;28;20218;-82
2024/03/08 11:51:14;;;;;;;18.10;4.32;;;10.20;1.00;;;;;;4980637;28;20205;-83
2024/03/08 11:53:41;;;;;;;16.17;3.90;;;10.20;1.00;;;;;;4998330;28;20191;-82
2024/03/08 11:56:11;;;;;;;17.05;4.43;;;10.20;1.00;;;;;;4998410;28;20679;-82
2024/03/08 11:58:38;;;;;;;17.33;4.20;;;10.20;1.00;;;;;;4980355;28;20331;-83
2024/03/08 12:01:11;;;;;;;17.17;3.90;;;10.40;1.00;;;;;;4998149;28;20191;-82
2024/03/08 12:03:38;;;;;;;16.98;5.10;;;10.50;1.00;;;;;;5001359;28;20175;-83
2024/03/08 12:06:04;;;;;;;17.75;4.47;;;10.50;1.00;;;;;;4982046;28;20167;-83
2024/03/08 12:08:33;;;;;;;16.43;3.70;;;10.60;1.00;;;;;;4999499;28;20187;-83
2024/03/08 12:11:02;;;;;;;17.88;5.38;;;10.60;1.00;;;;;;4999542;28;20511;-84
2024/03/08 12:13:29;;;;;;;15.68;3.63;;;10.50;1.00;;;;;;4999424;28;20155;-84
2024/03/08 12:15:58;;;;;;;15.93;4.05;;;10.60;99.90;;;;;;4999085;28;20183;-84
2024/03/08 12:18:28;;;;;;;17.20;5.25;;;10.60;99.90;;;;;;4999007;28;20163;-84
2024/03/08 12:21:10;;;;;;;17.42;5.22;;;10.60;99.90;;;;;;4998380;28;20708;-84
2024/03/08 12:23:37;;;;;;;16.55;4.00;;;10.70;99.90;;;;;;4998802;28;20172;-84
2024/03/08 12:26:13;;;;;;;15.35;4.25;;;10.70;99.90;;;;;;4999232;28;20206;-83
2024/03/08 12:28:40;;;;;;;16.70;3.95;;;10.80;99.90;;;;;;4998204;28;20245;-83
2024/03/08 12:31:10;;;;;;;16.02;4.40;;;10.90;99.90;;;;;;4998360;28;20246;-84
2024/03/08 12:33:47;;;;;;;16.02;3.90;;;11.00;99.90;;;;;;4998972;28;20167;-84
2024/03/08 12:36:15;;;;;;;17.27;4.35;;;11.20;99.90;;;;;;4998420;28;20158;-84
2024/03/08 12:38:43;;;;;;;17.00;4.32;;;11.20;99.90;;;;;;4998562;28;20167;-83
2024/03/08 12:41:08;;;;;;;19.88;5.15;;;11.20;99.90;;;;;;4981187;28;20187;-83
2024/03/08 12:43:34;;;;;;;15.77;4.20;;;11.30;99.90;;;;;;4998749;28;20163;-83
2024/03/08 12:46:00;;;;;;;17.77;4.50;;;11.30;99.90;;;;;;4998833;28;20167;-83
2024/03/08 12:48:26;;;;;;;16.07;4.23;;;11.20;99.90;;;;;;4998852;28;20187;-83
2024/03/08 12:50:53;;;;;;;18.97;4.43;;;11.10;99.90;;;;;;4997448;28;20201;-84
2024/03/08 12:53:19;;;;;;;15.98;3.80;;;11.10;99.90;;;;;;4998662;28;20419;-83
2024/03/08 12:55:46;;;;;;;13.68;3.28;;;11.10;99.90;;;;;;4998686;28;20192;-83
2024/03/08 12:58:12;;;;;;;16.73;5.87;;;11.20;99.90;;;;;;4999058;28;20686;-83